createdAt,value
2018-03-15T00:00:45.243Z,0.00
2018-03-15T00:01:45.039Z,0.00
2018-03-15T00:02:45.031Z,0.00
2018-03-15T00:03:45.007Z,0.00
2018-03-15T00:04:45.217Z,0.00
2018-03-15T00:05:45.212Z,0.00
2018-03-15T00:06:44.992Z,0.00
2018-03-15T00:07:45.008Z,0.00
2018-03-15T00:08:44.991Z,0.00
2018-03-15T00:09:44.989Z,0.00
2018-03-15T00:10:44.982Z,0.00
2018-03-15T00:11:45.186Z,0.00
2018-03-15T00:12:45.173Z,0.00
2018-03-15T00:13:44.966Z,0.00
2018-03-15T00:14:44.948Z,0.00
2018-03-15T00:15:44.942Z,0.00
2018-03-15T00:16:44.934Z,0.00
2018-03-15T00:17:44.950Z,0.00
2018-03-15T00:18:44.923Z,0.00
2018-03-15T00:19:45.143Z,0.00
2018-03-15T00:20:44.925Z,0.00
2018-03-15T00:21:45.111Z,0.00
2018-03-15T00:22:44.908Z,0.00
2018-03-15T00:23:45.110Z,0.00
2018-03-15T00:24:44.901Z,0.00
2018-03-15T00:25:45.091Z,0.00
2018-03-15T00:26:44.892Z,0.00
2018-03-15T00:27:44.872Z,0.00
2018-03-15T00:28:51.575Z,0.00
2018-03-15T00:29:44.871Z,0.00
2018-03-15T00:30:45.057Z,0.00
2018-03-15T00:31:44.858Z,0.00
2018-03-15T00:32:44.843Z,0.00
2018-03-15T00:33:44.838Z,0.00
2018-03-15T00:34:44.855Z,0.00
2018-03-15T00:35:44.835Z,0.00
2018-03-15T00:36:44.826Z,0.00
2018-03-15T00:37:45.029Z,0.00
2018-03-15T00:38:45.026Z,0.00
2018-03-15T00:39:44.862Z,0.00
2018-03-15T00:40:44.809Z,0.00
2018-03-15T00:41:44.800Z,0.00
2018-03-15T00:42:44.784Z,0.00
2018-03-15T00:43:44.982Z,0.00
2018-03-15T00:44:44.786Z,0.00
2018-03-15T00:45:44.777Z,0.00
2018-03-15T00:46:44.773Z,0.00
2018-03-15T00:47:44.769Z,0.00
2018-03-15T00:48:44.752Z,0.00
2018-03-15T00:49:44.946Z,0.00
2018-03-15T00:50:44.739Z,0.00
2018-03-15T00:51:44.732Z,0.00
2018-03-15T00:52:44.761Z,0.00
2018-03-15T00:53:44.722Z,0.00
2018-03-15T00:54:44.727Z,0.00
2018-03-15T00:55:44.720Z,0.00
2018-03-15T00:56:44.918Z,0.00
2018-03-15T00:57:44.696Z,0.00
2018-03-15T00:58:44.703Z,0.00
2018-03-15T00:59:44.898Z,0.00
2018-03-15T01:00:44.885Z,0.00
2018-03-15T01:01:44.890Z,0.00
2018-03-15T01:02:44.680Z,0.00
2018-03-15T01:03:44.671Z,0.00
2018-03-15T01:04:44.666Z,0.00
2018-03-15T01:05:44.691Z,0.00
2018-03-15T01:06:44.870Z,0.00
2018-03-15T01:07:44.651Z,0.00
2018-03-15T01:08:44.647Z,0.00
2018-03-15T01:09:44.832Z,0.00
2018-03-15T01:10:44.634Z,0.00
2018-03-15T01:11:44.625Z,0.00
2018-03-15T01:12:44.634Z,0.00
2018-03-15T01:13:44.809Z,0.00
2018-03-15T01:14:44.617Z,0.00
2018-03-15T01:15:44.595Z,0.00
2018-03-15T01:16:44.587Z,0.00
2018-03-15T01:17:44.581Z,0.00
2018-03-15T01:18:44.792Z,0.00
2018-03-15T01:19:44.590Z,0.00
2018-03-15T01:20:44.778Z,0.00
2018-03-15T01:21:44.569Z,0.00
2018-03-15T01:22:44.768Z,0.00
2018-03-15T01:23:44.545Z,0.00
2018-03-15T01:24:44.762Z,0.00
2018-03-15T01:25:44.738Z,0.00
2018-03-15T01:26:44.540Z,0.00
2018-03-15T01:27:44.539Z,0.00
2018-03-15T01:28:44.515Z,0.00
2018-03-15T01:29:44.716Z,0.00
2018-03-15T01:30:44.515Z,0.00
2018-03-15T01:31:44.522Z,0.00
2018-03-15T01:32:44.504Z,0.00
2018-03-15T01:33:44.710Z,0.00
2018-03-15T01:34:44.492Z,0.00
2018-03-15T01:35:44.500Z,0.00
2018-03-15T01:36:44.481Z,0.00
2018-03-15T01:37:44.689Z,0.00
2018-03-15T01:38:44.464Z,0.00
2018-03-15T01:39:44.656Z,0.00
2018-03-15T01:40:44.651Z,0.00
2018-03-15T01:41:44.442Z,0.00
2018-03-15T01:42:44.445Z,0.00
2018-03-15T01:43:44.432Z,0.00
2018-03-15T01:44:44.432Z,0.00
2018-03-15T01:45:44.426Z,0.00
2018-03-15T01:46:44.618Z,0.00
2018-03-15T01:47:44.426Z,0.00
2018-03-15T01:48:44.412Z,0.00
2018-03-15T01:49:44.404Z,0.00
2018-03-15T01:50:44.384Z,0.00
2018-03-15T01:51:44.389Z,0.00
2018-03-15T01:52:44.376Z,0.00
2018-03-15T01:53:44.570Z,0.00
2018-03-15T01:54:44.564Z,0.00
2018-03-15T01:55:44.556Z,0.00
2018-03-15T01:56:44.563Z,0.00
2018-03-15T01:57:44.341Z,0.00
2018-03-15T01:58:44.553Z,0.00
2018-03-15T01:59:44.552Z,0.00
2018-03-15T02:00:44.347Z,0.00
2018-03-15T02:01:44.318Z,0.00
2018-03-15T02:02:44.324Z,0.00
2018-03-15T02:03:44.320Z,0.00
2018-03-15T02:04:44.296Z,0.00
2018-03-15T02:05:44.292Z,0.00
2018-03-15T02:06:44.503Z,0.00
2018-03-15T02:07:44.282Z,0.00
2018-03-15T02:08:44.273Z,0.00
2018-03-15T02:09:44.475Z,0.00
2018-03-15T02:10:44.265Z,0.00
2018-03-15T02:11:44.256Z,0.00
2018-03-15T02:12:44.273Z,0.00
2018-03-15T02:13:44.256Z,0.00
2018-03-15T02:14:44.462Z,0.00
2018-03-15T02:15:44.234Z,0.00
2018-03-15T02:16:44.471Z,0.00
2018-03-15T02:17:44.247Z,0.00
2018-03-15T02:18:44.252Z,0.00
2018-03-15T02:19:44.218Z,0.00
2018-03-15T02:20:44.226Z,0.00
2018-03-15T02:21:44.194Z,0.00
2018-03-15T02:22:44.390Z,0.00
2018-03-15T02:23:44.209Z,0.00
2018-03-15T02:24:44.187Z,0.00
2018-03-15T02:25:44.374Z,0.00
2018-03-15T02:26:44.177Z,0.00
2018-03-15T02:27:44.160Z,0.00
2018-03-15T02:28:44.164Z,0.00
2018-03-15T02:29:44.344Z,0.00
2018-03-15T02:30:44.350Z,0.00
2018-03-15T02:31:44.131Z,0.00
2018-03-15T02:32:44.139Z,0.00
2018-03-15T02:33:44.117Z,0.00
2018-03-15T02:34:44.138Z,0.00
2018-03-15T02:35:44.310Z,0.00
2018-03-15T02:36:44.310Z,0.00
2018-03-15T02:37:44.116Z,0.00
2018-03-15T02:38:44.304Z,0.00
2018-03-15T02:39:44.078Z,0.00
2018-03-15T02:40:44.084Z,0.00
2018-03-15T02:41:44.078Z,0.00
2018-03-15T02:42:44.074Z,0.00
2018-03-15T02:43:44.054Z,0.00
2018-03-15T02:44:44.057Z,0.00
2018-03-15T02:45:44.247Z,0.00
2018-03-15T02:46:44.251Z,0.00
2018-03-15T02:47:44.028Z,0.00
2018-03-15T02:48:44.030Z,0.00
2018-03-15T02:49:44.025Z,0.00
2018-03-15T02:50:44.027Z,0.00
2018-03-15T02:51:44.232Z,0.00
2018-03-15T02:52:44.009Z,0.00
2018-03-15T02:53:44.006Z,0.00
2018-03-15T02:54:44.007Z,0.00
2018-03-15T02:55:43.976Z,0.00
2018-03-15T02:56:43.986Z,0.00
2018-03-15T02:57:43.964Z,0.00
2018-03-15T02:58:43.961Z,0.00
2018-03-15T02:59:44.177Z,0.00
2018-03-15T03:00:44.173Z,0.00
2018-03-15T03:01:43.953Z,0.00
2018-03-15T03:02:43.933Z,0.00
2018-03-15T03:03:43.934Z,0.00
2018-03-15T03:04:43.941Z,0.00
2018-03-15T03:05:43.925Z,0.00
2018-03-15T03:06:43.936Z,0.00
2018-03-15T03:07:43.924Z,0.00
2018-03-15T03:08:44.118Z,0.00
2018-03-15T03:09:43.897Z,0.00
2018-03-15T03:10:43.895Z,0.00
2018-03-15T03:11:43.897Z,0.00
2018-03-15T03:12:43.889Z,0.00
2018-03-15T03:13:43.873Z,0.00
2018-03-15T03:14:44.064Z,0.00
2018-03-15T03:15:43.850Z,0.00
2018-03-15T03:16:43.840Z,0.00
2018-03-15T03:17:43.845Z,0.00
2018-03-15T03:18:43.834Z,0.00
2018-03-15T03:19:44.039Z,0.00
2018-03-15T03:20:43.816Z,0.00
2018-03-15T03:21:43.820Z,0.00
2018-03-15T03:22:44.017Z,0.00
2018-03-15T03:23:43.807Z,0.00
2018-03-15T03:24:43.787Z,0.00
2018-03-15T03:25:43.999Z,0.00
2018-03-15T03:26:43.777Z,0.00
2018-03-15T03:27:44.274Z,0.00
2018-03-15T03:28:43.972Z,0.00
2018-03-15T03:29:43.973Z,0.00
2018-03-15T03:30:43.759Z,0.00
2018-03-15T03:31:43.757Z,0.00
2018-03-15T03:32:44.012Z,0.00
2018-03-15T03:33:43.744Z,0.00
2018-03-15T03:34:43.737Z,0.00
2018-03-15T03:35:43.726Z,0.00
2018-03-15T03:36:43.736Z,0.00
2018-03-15T03:37:43.720Z,0.00
2018-03-15T03:38:43.914Z,0.00
2018-03-15T03:39:43.703Z,0.00
2018-03-15T03:40:43.926Z,0.00
2018-03-15T03:41:43.692Z,0.00
2018-03-15T03:42:43.682Z,0.00
2018-03-15T03:43:43.665Z,0.00
2018-03-15T03:44:43.701Z,0.00
2018-03-15T03:45:43.653Z,0.00
2018-03-15T03:46:43.658Z,0.00
2018-03-15T03:47:43.856Z,0.00
2018-03-15T03:48:43.635Z,0.00
2018-03-15T03:49:43.650Z,0.00
2018-03-15T03:50:43.625Z,0.00
2018-03-15T03:51:43.615Z,0.00
2018-03-15T03:52:43.608Z,0.00
2018-03-15T03:53:43.830Z,0.00
2018-03-15T03:54:43.802Z,0.00
2018-03-15T03:55:43.600Z,0.00
2018-03-15T03:56:43.593Z,0.00
2018-03-15T03:57:43.584Z,0.00
2018-03-15T03:58:43.605Z,0.00
2018-03-15T03:59:43.575Z,0.00
2018-03-15T04:00:43.566Z,0.00
2018-03-15T04:01:43.565Z,0.00
2018-03-15T04:02:43.747Z,0.00
2018-03-15T04:03:43.535Z,0.00
2018-03-15T04:04:43.544Z,0.00
2018-03-15T04:05:43.521Z,0.00
2018-03-15T04:06:43.540Z,0.00
2018-03-15T04:07:43.716Z,0.00
2018-03-15T04:08:43.518Z,0.00
2018-03-15T04:09:43.712Z,0.00
2018-03-15T04:10:43.720Z,0.00
2018-03-15T04:11:43.698Z,0.00
2018-03-15T04:12:43.486Z,0.00
2018-03-15T04:13:43.682Z,0.00
2018-03-15T04:14:43.680Z,0.00
2018-03-15T04:15:43.466Z,0.00
2018-03-15T04:16:43.463Z,0.00
2018-03-15T04:17:43.455Z,0.00
2018-03-15T04:18:43.450Z,0.00
2018-03-15T04:19:43.437Z,0.00
2018-03-15T04:20:43.438Z,0.00
2018-03-15T04:21:43.429Z,0.00
2018-03-15T04:22:43.412Z,0.00
2018-03-15T04:23:43.619Z,0.00
2018-03-15T04:24:43.402Z,0.00
2018-03-15T04:25:43.407Z,0.00
2018-03-15T04:26:43.386Z,0.00
2018-03-15T04:27:43.598Z,0.00
2018-03-15T04:28:43.384Z,0.00
2018-03-15T04:29:43.387Z,0.00
2018-03-15T04:30:43.358Z,0.00
2018-03-15T04:31:43.565Z,0.00
2018-03-15T04:32:43.355Z,0.00
2018-03-15T04:33:43.363Z,0.00
2018-03-15T04:34:43.354Z,0.00
2018-03-15T04:35:43.326Z,0.00
2018-03-15T04:36:43.543Z,0.00
2018-03-15T04:37:43.334Z,0.00
2018-03-15T04:38:43.325Z,0.00
2018-03-15T04:39:43.499Z,0.00
2018-03-15T04:40:43.496Z,0.00
2018-03-15T04:41:43.284Z,0.00
2018-03-15T04:42:43.492Z,0.00
2018-03-15T04:43:43.476Z,0.00
2018-03-15T04:44:43.286Z,0.00
2018-03-15T04:45:43.473Z,0.00
2018-03-15T04:46:43.262Z,0.00
2018-03-15T04:47:43.256Z,0.00
2018-03-15T04:48:43.451Z,0.00
2018-03-15T04:49:43.246Z,0.00
2018-03-15T04:50:43.223Z,0.00
2018-03-15T04:51:43.244Z,0.00
2018-03-15T04:52:43.414Z,0.00
2018-03-15T04:53:43.419Z,0.00
2018-03-15T04:54:43.401Z,0.00
2018-03-15T04:55:43.406Z,0.00
2018-03-15T04:56:43.180Z,0.00
2018-03-15T04:57:43.383Z,0.00
2018-03-15T04:58:43.184Z,0.00
2018-03-15T04:59:43.159Z,0.00
2018-03-15T05:00:43.381Z,0.00
2018-03-15T05:01:43.162Z,0.00
2018-03-15T05:02:43.174Z,0.00
2018-03-15T05:03:43.135Z,0.00
2018-03-15T05:04:43.141Z,0.00
2018-03-15T05:05:43.378Z,0.00
2018-03-15T05:06:43.126Z,0.00
2018-03-15T05:07:43.108Z,0.00
2018-03-15T05:08:43.321Z,0.00
2018-03-15T05:09:43.094Z,0.00
2018-03-15T05:10:43.099Z,0.00
2018-03-15T05:11:43.107Z,0.00
2018-03-15T05:12:43.091Z,0.00
2018-03-15T05:13:43.093Z,0.00
2018-03-15T05:14:43.061Z,0.00
2018-03-15T05:15:43.053Z,0.00
2018-03-15T05:16:43.046Z,0.00
2018-03-15T05:17:43.060Z,0.00
2018-03-15T05:18:43.043Z,4.00
2018-03-15T05:19:43.029Z,0.00
2018-03-15T05:20:43.084Z,0.00
2018-03-15T05:21:43.019Z,4.00
2018-03-15T05:22:43.025Z,0.00
2018-03-15T05:23:43.005Z,4.00
2018-03-15T05:24:42.994Z,4.00
2018-03-15T05:25:43.200Z,4.00
2018-03-15T05:26:42.999Z,4.00
2018-03-15T05:27:43.200Z,4.00
2018-03-15T05:28:42.979Z,8.00
2018-03-15T05:29:42.957Z,8.00
2018-03-15T05:30:42.961Z,8.00
2018-03-15T05:31:42.943Z,8.00
2018-03-15T05:32:43.141Z,12.00
2018-03-15T05:33:43.138Z,12.00
2018-03-15T05:34:42.928Z,16.00
2018-03-15T05:35:42.940Z,16.00
2018-03-15T05:36:42.920Z,20.00
2018-03-15T05:37:42.907Z,24.00
2018-03-15T05:38:42.908Z,32.00
2018-03-15T05:39:42.901Z,32.00
2018-03-15T05:40:42.886Z,40.00
2018-03-15T05:41:43.080Z,44.00
2018-03-15T05:42:42.884Z,48.00
2018-03-15T05:43:42.877Z,60.00
2018-03-15T05:44:42.871Z,64.00
2018-03-15T05:45:42.862Z,68.00
2018-03-15T05:46:42.858Z,76.00
2018-03-15T05:47:42.848Z,84.00
2018-03-15T05:48:43.033Z,92.00
2018-03-15T05:49:43.054Z,100.00
2018-03-15T05:50:43.033Z,108.00
2018-03-15T05:51:42.824Z,116.00
2018-03-15T05:52:42.806Z,128.00
2018-03-15T05:53:42.796Z,140.00
2018-03-15T05:54:43.009Z,148.00
2018-03-15T05:55:42.804Z,160.00
2018-03-15T05:56:42.979Z,172.00
2018-03-15T05:57:42.985Z,188.00
2018-03-15T05:58:42.774Z,200.00
2018-03-15T05:59:42.767Z,216.00
2018-03-15T06:00:42.784Z,232.00
2018-03-15T06:01:42.747Z,244.00
2018-03-15T06:02:42.937Z,264.00
2018-03-15T06:03:42.932Z,280.00
2018-03-15T06:04:42.724Z,296.00
2018-03-15T06:05:42.714Z,316.00
2018-03-15T06:06:42.923Z,336.00
2018-03-15T06:07:42.711Z,356.00
2018-03-15T06:08:42.695Z,380.00
2018-03-15T06:09:42.700Z,404.00
2018-03-15T06:10:42.895Z,428.00
2018-03-15T06:11:42.699Z,460.00
2018-03-15T06:12:42.684Z,484.00
2018-03-15T06:13:42.865Z,516.00
2018-03-15T06:14:42.666Z,544.00
2018-03-15T06:15:42.647Z,572.00
2018-03-15T06:16:42.654Z,592.00
2018-03-15T06:17:42.637Z,616.00
2018-03-15T06:18:42.643Z,640.00
2018-03-15T06:19:42.649Z,668.00
2018-03-15T06:20:42.850Z,688.00
2018-03-15T06:21:42.611Z,712.00
2018-03-15T06:22:42.628Z,740.00
2018-03-15T06:23:42.597Z,756.00
2018-03-15T06:24:42.804Z,776.00
2018-03-15T06:25:42.795Z,792.00
2018-03-15T06:26:42.780Z,784.00
2018-03-15T06:27:42.819Z,776.00
2018-03-15T06:28:42.580Z,792.00
2018-03-15T06:29:42.595Z,812.00
2018-03-15T06:30:42.574Z,836.00
2018-03-15T06:31:42.556Z,872.00
2018-03-15T06:32:42.550Z,912.00
2018-03-15T06:33:42.533Z,920.00
2018-03-15T06:34:42.742Z,916.00
2018-03-15T06:35:42.533Z,928.00
2018-03-15T06:36:42.511Z,960.00
2018-03-15T06:37:42.528Z,1000.00
2018-03-15T06:38:42.501Z,1036.00
2018-03-15T06:39:42.708Z,1072.00
2018-03-15T06:40:42.492Z,1108.00
2018-03-15T06:41:42.478Z,1128.00
2018-03-15T06:42:42.484Z,1132.00
2018-03-15T06:43:42.668Z,1140.00
2018-03-15T06:44:42.463Z,1180.00
2018-03-15T06:45:42.456Z,1204.00
2018-03-15T06:46:42.450Z,1216.00
2018-03-15T06:47:42.442Z,1220.00
2018-03-15T06:48:42.445Z,1224.00
2018-03-15T06:49:42.442Z,1196.00
2018-03-15T06:50:42.436Z,1140.00
2018-03-15T06:51:42.446Z,1092.00
2018-03-15T06:52:42.411Z,1092.00
2018-03-15T06:53:42.645Z,1112.00
2018-03-15T06:54:42.642Z,1172.00
2018-03-15T06:55:42.403Z,1216.00
2018-03-15T06:56:42.599Z,1224.00
2018-03-15T06:57:42.381Z,1236.00
2018-03-15T06:58:42.575Z,1300.00
2018-03-15T06:59:42.389Z,1360.00
2018-03-15T07:00:42.371Z,1372.00
2018-03-15T07:01:42.556Z,1412.00
2018-03-15T07:02:42.349Z,1452.00
2018-03-15T07:03:42.340Z,1512.00
2018-03-15T07:04:42.347Z,1556.00
2018-03-15T07:05:42.346Z,1604.00
2018-03-15T07:06:42.341Z,1668.00
2018-03-15T07:07:42.533Z,1736.00
2018-03-15T07:08:42.312Z,1800.00
2018-03-15T07:09:42.318Z,1876.00
2018-03-15T07:10:42.504Z,1948.00
2018-03-15T07:11:42.292Z,1996.00
2018-03-15T07:12:42.313Z,2040.00
2018-03-15T07:13:42.283Z,2084.00
2018-03-15T07:14:42.287Z,2096.00
2018-03-15T07:15:42.267Z,2124.00
2018-03-15T07:16:42.481Z,2112.00
2018-03-15T07:17:42.268Z,2084.00
2018-03-15T07:18:42.262Z,2028.00
2018-03-15T07:19:42.460Z,1928.00
2018-03-15T07:20:42.457Z,1944.00
2018-03-15T07:21:42.465Z,1856.00
2018-03-15T07:22:42.288Z,1868.00
2018-03-15T07:23:42.440Z,1884.00
2018-03-15T07:24:42.221Z,1852.00
2018-03-15T07:25:42.220Z,1872.00
2018-03-15T07:26:42.216Z,1856.00
2018-03-15T07:27:42.208Z,1940.00
2018-03-15T07:28:42.205Z,2096.00
2018-03-15T07:29:42.391Z,2140.00
2018-03-15T07:30:42.183Z,2124.00
2018-03-15T07:31:42.185Z,2132.00
2018-03-15T07:32:42.180Z,1992.00
2018-03-15T07:33:42.186Z,1808.00
2018-03-15T07:34:42.159Z,0.00
2018-03-15T07:35:42.170Z,2652.00
2018-03-15T07:36:42.172Z,2172.00
2018-03-15T07:37:42.149Z,6124.00
2018-03-15T07:38:42.341Z,8732.00
2018-03-15T07:39:42.332Z,6760.00
2018-03-15T07:40:42.337Z,14624.00
2018-03-15T07:41:42.323Z,13632.00
2018-03-15T07:42:42.124Z,17248.00
2018-03-15T07:43:42.105Z,13824.00
2018-03-15T07:44:42.336Z,9456.00
2018-03-15T07:45:42.097Z,7732.00
2018-03-15T07:46:42.306Z,4712.00
2018-03-15T07:47:42.106Z,4164.00
2018-03-15T07:48:42.116Z,7564.00
2018-03-15T07:49:42.073Z,23168.00
2018-03-15T07:50:42.081Z,17920.00
2018-03-15T07:51:42.272Z,932.00
2018-03-15T07:52:42.265Z,30176.00
2018-03-15T07:53:42.066Z,25568.00
2018-03-15T07:54:42.064Z,20192.00
2018-03-15T07:55:42.056Z,14752.00
2018-03-15T07:56:42.067Z,16992.00
2018-03-15T07:57:42.075Z,18848.00
2018-03-15T07:58:42.047Z,17600.00
2018-03-15T07:59:42.029Z,16000.00
2018-03-15T08:00:42.039Z,12044.00
2018-03-15T08:01:42.046Z,12384.00
2018-03-15T08:02:42.042Z,13760.00
2018-03-15T08:03:42.027Z,9536.00
2018-03-15T08:04:42.037Z,10140.00
2018-03-15T08:05:42.007Z,11940.00
2018-03-15T08:06:42.006Z,12056.00
2018-03-15T08:07:42.012Z,8512.00
2018-03-15T08:08:42.023Z,6844.00
2018-03-15T08:09:42.211Z,7440.00
2018-03-15T08:10:41.991Z,8600.00
2018-03-15T08:11:41.991Z,10080.00
2018-03-15T08:12:42.002Z,7896.00
2018-03-15T08:13:41.980Z,6924.00
2018-03-15T08:14:42.016Z,7236.00
2018-03-15T08:15:41.989Z,6732.00
2018-03-15T08:16:41.985Z,7880.00
2018-03-15T08:17:41.971Z,8196.00
2018-03-15T08:18:42.196Z,10796.00
2018-03-15T08:19:41.963Z,10836.00
2018-03-15T08:20:41.969Z,11552.00
2018-03-15T08:21:41.969Z,10844.00
2018-03-15T08:22:42.174Z,9768.00
2018-03-15T08:23:41.950Z,10448.00
2018-03-15T08:24:41.961Z,9136.00
2018-03-15T08:25:41.968Z,11340.00
2018-03-15T08:26:42.171Z,9572.00
2018-03-15T08:27:41.951Z,10040.00
2018-03-15T08:28:41.941Z,10132.00
2018-03-15T08:29:41.951Z,15184.00
2018-03-15T08:30:41.951Z,18080.00
2018-03-15T08:31:41.933Z,14212.00
2018-03-15T08:32:41.949Z,8400.00
2018-03-15T08:33:41.936Z,7380.00
2018-03-15T08:34:41.933Z,8132.00
2018-03-15T08:35:41.931Z,10460.00
2018-03-15T08:36:41.929Z,9304.00
2018-03-15T08:37:41.922Z,9756.00
2018-03-15T08:38:41.910Z,8456.00
2018-03-15T08:39:41.908Z,6504.00
2018-03-15T08:40:41.957Z,5848.00
2018-03-15T08:41:41.909Z,5644.00
2018-03-15T08:42:42.101Z,5504.00
2018-03-15T08:43:41.900Z,5432.00
2018-03-15T08:44:41.887Z,5380.00
2018-03-15T08:45:41.884Z,5256.00
2018-03-15T08:46:42.097Z,5188.00
2018-03-15T08:47:41.890Z,5060.00
2018-03-15T08:48:42.080Z,4960.00
2018-03-15T08:49:42.086Z,4764.00
2018-03-15T08:50:42.100Z,4684.00
2018-03-15T08:51:42.131Z,4404.00
2018-03-15T08:52:41.863Z,4280.00
2018-03-15T08:53:41.857Z,4176.00
2018-03-15T08:54:41.862Z,4072.00
2018-03-15T08:55:41.848Z,3988.00
2018-03-15T08:56:42.064Z,3900.00
2018-03-15T08:57:41.841Z,3804.00
2018-03-15T08:58:41.846Z,3736.00
2018-03-15T08:59:41.844Z,3616.00
2018-03-15T09:00:41.845Z,3580.00
2018-03-15T09:01:42.055Z,3488.00
2018-03-15T09:02:41.844Z,3432.00
2018-03-15T09:03:41.819Z,3376.00
2018-03-15T09:04:41.827Z,3324.00
2018-03-15T09:05:42.031Z,3312.00
2018-03-15T09:06:41.817Z,3260.00
2018-03-15T09:07:42.025Z,3220.00
2018-03-15T09:08:41.860Z,3192.00
2018-03-15T09:09:41.804Z,3176.00
2018-03-15T09:10:42.016Z,3136.00
2018-03-15T09:11:41.785Z,3120.00
2018-03-15T09:12:41.786Z,3100.00
2018-03-15T09:13:41.784Z,3060.00
2018-03-15T09:14:41.776Z,3052.00
2018-03-15T09:15:41.987Z,3024.00
2018-03-15T09:16:41.778Z,3012.00
2018-03-15T09:17:41.970Z,3008.00
2018-03-15T09:18:41.801Z,3008.00
2018-03-15T09:19:41.757Z,2996.00
2018-03-15T09:20:41.760Z,2960.00
2018-03-15T09:21:41.772Z,2924.00
2018-03-15T09:22:41.755Z,2956.00
2018-03-15T09:23:41.772Z,2972.00
2018-03-15T09:24:41.748Z,2956.00
2018-03-15T09:25:41.951Z,2948.00
2018-03-15T09:26:41.727Z,2896.00
2018-03-15T09:27:41.723Z,2988.00
2018-03-15T09:28:41.724Z,2992.00
2018-03-15T09:29:41.721Z,3040.00
2018-03-15T09:30:41.728Z,3132.00
2018-03-15T09:31:41.925Z,3096.00
2018-03-15T09:32:41.719Z,3152.00
2018-03-15T09:33:41.712Z,3148.00
2018-03-15T09:34:41.907Z,3156.00
2018-03-15T09:35:41.918Z,3152.00
2018-03-15T09:36:41.713Z,3148.00
2018-03-15T09:37:41.688Z,3140.00
2018-03-15T09:38:41.689Z,3144.00
2018-03-15T09:39:41.705Z,3176.00
2018-03-15T09:40:41.693Z,3204.00
2018-03-15T09:41:41.886Z,3224.00
2018-03-15T09:42:41.706Z,3240.00
2018-03-15T09:43:41.675Z,3208.00
2018-03-15T09:44:41.875Z,3256.00
2018-03-15T09:45:41.868Z,3292.00
2018-03-15T09:46:41.662Z,3328.00
2018-03-15T09:47:41.646Z,3336.00
2018-03-15T09:48:41.880Z,3360.00
2018-03-15T09:49:41.651Z,3380.00
2018-03-15T09:50:41.852Z,3356.00
2018-03-15T09:51:41.641Z,3300.00
2018-03-15T09:52:41.644Z,3244.00
2018-03-15T09:53:41.624Z,3188.00
2018-03-15T09:54:41.619Z,3108.00
2018-03-15T09:55:41.817Z,3028.00
2018-03-15T09:56:41.836Z,2956.00
2018-03-15T09:57:41.608Z,2824.00
2018-03-15T09:58:41.608Z,2736.00
2018-03-15T09:59:41.605Z,2660.00
2018-03-15T10:00:41.804Z,2620.00
2018-03-15T10:01:41.604Z,2576.00
2018-03-15T10:02:41.600Z,2536.00
2018-03-15T10:03:41.587Z,2512.00
2018-03-15T10:04:41.594Z,2500.00
2018-03-15T10:05:41.633Z,2492.00
2018-03-15T10:06:41.600Z,2476.00
2018-03-15T10:07:41.775Z,2468.00
2018-03-15T10:08:41.568Z,2464.00
2018-03-15T10:09:41.579Z,2476.00
2018-03-15T10:10:41.587Z,2484.00
2018-03-15T10:11:41.584Z,2508.00
2018-03-15T10:12:41.759Z,2532.00
2018-03-15T10:13:41.553Z,2532.00
2018-03-15T10:14:41.569Z,2556.00
2018-03-15T10:15:41.583Z,2536.00
2018-03-15T10:16:41.744Z,2548.00
2018-03-15T10:17:41.560Z,2540.00
2018-03-15T10:18:41.559Z,2516.00
2018-03-15T10:19:41.530Z,2504.00
2018-03-15T10:20:41.554Z,2460.00
2018-03-15T10:21:41.533Z,2420.00
2018-03-15T10:22:41.521Z,2332.00
2018-03-15T10:23:41.733Z,2260.00
2018-03-15T10:24:41.536Z,2212.00
2018-03-15T10:25:41.523Z,2184.00
2018-03-15T10:26:41.712Z,2184.00
2018-03-15T10:27:41.504Z,2196.00
2018-03-15T10:28:41.511Z,2216.00
2018-03-15T10:29:41.501Z,2272.00
2018-03-15T10:30:41.710Z,2344.00
2018-03-15T10:31:41.512Z,2392.00
2018-03-15T10:32:41.485Z,2432.00
2018-03-15T10:33:41.511Z,2468.00
2018-03-15T10:34:41.706Z,2500.00
2018-03-15T10:35:41.681Z,2516.00
2018-03-15T10:36:41.683Z,2520.00
2018-03-15T10:37:41.482Z,2516.00
2018-03-15T10:38:41.489Z,2488.00
2018-03-15T10:39:41.489Z,2496.00
2018-03-15T10:40:41.480Z,2488.00
2018-03-15T10:41:41.671Z,2484.00
2018-03-15T10:42:41.463Z,2516.00
2018-03-15T10:43:41.465Z,2544.00
2018-03-15T10:44:41.652Z,2552.00
2018-03-15T10:45:41.650Z,2572.00
2018-03-15T10:46:41.653Z,2592.00
2018-03-15T10:47:41.447Z,2620.00
2018-03-15T10:48:41.430Z,2652.00
2018-03-15T10:49:41.454Z,2684.00
2018-03-15T10:50:41.429Z,2704.00
2018-03-15T10:51:41.440Z,2748.00
2018-03-15T10:52:41.433Z,2756.00
2018-03-15T10:53:41.633Z,2784.00
2018-03-15T10:54:41.436Z,2872.00
2018-03-15T10:55:41.422Z,2992.00
2018-03-15T10:56:41.431Z,3004.00
2018-03-15T10:57:41.443Z,3048.00
2018-03-15T10:58:41.445Z,3064.00
2018-03-15T10:59:41.411Z,3028.00
2018-03-15T11:00:41.406Z,2988.00
2018-03-15T11:01:41.416Z,3004.00
2018-03-15T11:02:41.417Z,3008.00
2018-03-15T11:03:41.412Z,2972.00
2018-03-15T11:04:41.394Z,2980.00
2018-03-15T11:05:41.392Z,3012.00
2018-03-15T11:06:41.593Z,3040.00
2018-03-15T11:07:41.383Z,3000.00
2018-03-15T11:08:41.384Z,2920.00
2018-03-15T11:09:41.386Z,2784.00
2018-03-15T11:10:41.601Z,2668.00
2018-03-15T11:11:41.381Z,2600.00
2018-03-15T11:12:41.371Z,2576.00
2018-03-15T11:13:41.380Z,2564.00
2018-03-15T11:14:41.379Z,2544.00
2018-03-15T11:15:41.368Z,2472.00
2018-03-15T11:16:41.361Z,2444.00
2018-03-15T11:17:41.558Z,2428.00
2018-03-15T11:18:41.572Z,2356.00
2018-03-15T11:19:41.339Z,2300.00
2018-03-15T11:20:41.355Z,2248.00
2018-03-15T11:21:41.367Z,2160.00
2018-03-15T11:22:41.359Z,2096.00
2018-03-15T11:23:41.416Z,2052.00
2018-03-15T11:24:41.350Z,2064.00
2018-03-15T11:25:41.352Z,2100.00
2018-03-15T11:26:41.329Z,2136.00
2018-03-15T11:27:41.327Z,2104.00
2018-03-15T11:28:41.317Z,2060.00
2018-03-15T11:29:41.519Z,2048.00
2018-03-15T11:30:41.318Z,2068.00
2018-03-15T11:31:41.531Z,2080.00
2018-03-15T11:32:41.528Z,2068.00
2018-03-15T11:33:41.302Z,2036.00
2018-03-15T11:34:41.502Z,2044.00
2018-03-15T11:35:41.295Z,2060.00
2018-03-15T11:36:41.495Z,2084.00
2018-03-15T11:37:41.311Z,2116.00
2018-03-15T11:38:41.283Z,2164.00
2018-03-15T11:39:41.296Z,2184.00
2018-03-15T11:40:41.293Z,2188.00
2018-03-15T11:41:41.332Z,2196.00
2018-03-15T11:42:41.311Z,2160.00
2018-03-15T11:43:41.282Z,2132.00
2018-03-15T11:44:41.487Z,2068.00
2018-03-15T11:45:41.264Z,2060.00
2018-03-15T11:46:41.488Z,2016.00
2018-03-15T11:47:41.461Z,1952.00
2018-03-15T11:48:41.270Z,1884.00
2018-03-15T11:49:41.471Z,1860.00
2018-03-15T11:50:41.265Z,1928.00
2018-03-15T11:51:41.270Z,1976.00
2018-03-15T11:52:41.246Z,2024.00
2018-03-15T11:53:41.245Z,2048.00
2018-03-15T11:54:41.242Z,2076.00
2018-03-15T11:55:41.237Z,2116.00
2018-03-15T11:56:41.256Z,2132.00
2018-03-15T11:57:41.245Z,2132.00
2018-03-15T11:58:41.456Z,2108.00
2018-03-15T11:59:41.237Z,2040.00
2018-03-15T12:00:41.283Z,1976.00
2018-03-15T12:01:41.274Z,1916.00
2018-03-15T12:02:41.422Z,1872.00
2018-03-15T12:03:41.226Z,1824.00
2018-03-15T12:04:41.224Z,1776.00
2018-03-15T12:05:41.238Z,1788.00
2018-03-15T12:06:41.410Z,1792.00
2018-03-15T12:07:41.271Z,1748.00
2018-03-15T12:08:41.212Z,1708.00
2018-03-15T12:09:41.426Z,1684.00
2018-03-15T12:10:41.399Z,1688.00
2018-03-15T12:11:41.406Z,1684.00
2018-03-15T12:12:41.202Z,1692.00
2018-03-15T12:13:41.426Z,1724.00
2018-03-15T12:14:41.417Z,1760.00
2018-03-15T12:15:41.196Z,1752.00
2018-03-15T12:16:41.387Z,1768.00
2018-03-15T12:17:41.396Z,1756.00
2018-03-15T12:18:41.183Z,1776.00
2018-03-15T12:19:41.185Z,1764.00
2018-03-15T12:20:41.166Z,1764.00
2018-03-15T12:21:41.367Z,1744.00
2018-03-15T12:22:41.163Z,1728.00
2018-03-15T12:23:41.183Z,1756.00
2018-03-15T12:24:41.375Z,1780.00
2018-03-15T12:25:41.355Z,1780.00
2018-03-15T12:26:41.149Z,1732.00
2018-03-15T12:27:41.158Z,1660.00
2018-03-15T12:28:41.142Z,1604.00
2018-03-15T12:29:41.151Z,1584.00
2018-03-15T12:30:41.148Z,1548.00
2018-03-15T12:31:41.147Z,1536.00
2018-03-15T12:32:41.335Z,1528.00
2018-03-15T12:33:41.128Z,1544.00
2018-03-15T12:34:41.129Z,1548.00
2018-03-15T12:35:41.135Z,1536.00
2018-03-15T12:36:41.131Z,1540.00
2018-03-15T12:37:41.130Z,1556.00